Archival Weather

Václav Havel Intl Apt

Prague, Czechia (LKPR)

Report from: Friday, May 26, 2023 1:00 AM CEST
Current time: Sunday, July 14, 2024 1:36 PM CEST

Current weather – Weather history – Daily summaries
Weather forecast

Temperature11.0°C (51.8°F)
Dew point6.0°C (42.8°F)
Winds 8 kts (4.1 m/s, 9.2 mph) North-Northwest (330°)
Clouds Sky clear
Altimeter30.24 in.Hg (1024 mB)
Relative humidity71 %
Density altitude-704 ft. (-215 m)
Remarks Ceiling and visibility OK
No significant changes expected in the next two hours
Flight conditions Visual Meteorological Conditions
Raw dataLKPR 252300Z 33008KT CAVOK 11/06 Q1024 NOSIG
An error has occurred. This application may no longer respond until reloaded. Reload 🗙